sensor_id;sensor_type;location;lat;lon;timestamp;P1;durP1;ratioP1;P2;durP2;ratioP2
44428;SDS011;30134;47.866;-4.222;2023-07-30T00:02:01;11.80;;;5.70;;
44428;SDS011;30134;47.866;-4.222;2023-07-30T00:04:27;10.20;;;5.05;;
44428;SDS011;30134;47.866;-4.222;2023-07-30T00:06:53;8.35;;;4.57;;
44428;SDS011;30134;47.866;-4.222;2023-07-30T00:09:19;8.95;;;4.43;;
44428;SDS011;30134;47.866;-4.222;2023-07-30T00:11:45;12.52;;;4.80;;
44428;SDS011;30134;47.866;-4.222;2023-07-30T00:14:11;10.15;;;4.80;;
44428;SDS011;30134;47.866;-4.222;2023-07-30T00:16:37;9.18;;;4.03;;
44428;SDS011;30134;47.866;-4.222;2023-07-30T00:19:03;10.10;;;4.70;;
44428;SDS011;30134;47.866;-4.222;2023-07-30T00:21:30;12.13;;;4.47;;
44428;SDS011;30134;47.866;-4.222;2023-07-30T00:23:56;9.60;;;4.32;;
44428;SDS011;30134;47.866;-4.222;2023-07-30T00:26:22;9.70;;;3.60;;
44428;SDS011;30134;47.866;-4.222;2023-07-30T00:28:51;9.95;;;3.95;;
44428;SDS011;30134;47.866;-4.222;2023-07-30T00:31:17;7.18;;;3.55;;
44428;SDS011;30134;47.866;-4.222;2023-07-30T00:33:43;6.22;;;3.30;;
44428;SDS011;30134;47.866;-4.222;2023-07-30T00:36:09;7.72;;;3.92;;
44428;SDS011;30134;47.866;-4.222;2023-07-30T00:38:35;7.30;;;3.15;;
44428;SDS011;30134;47.866;-4.222;2023-07-30T00:41:01;8.32;;;3.65;;
44428;SDS011;30134;47.866;-4.222;2023-07-30T00:43:27;8.90;;;3.88;;
44428;SDS011;30134;47.866;-4.222;2023-07-30T00:45:53;8.73;;;3.25;;
44428;SDS011;30134;47.866;-4.222;2023-07-30T00:48:19;9.20;;;2.78;;
44428;SDS011;30134;47.866;-4.222;2023-07-30T00:50:45;8.50;;;3.28;;
44428;SDS011;30134;47.866;-4.222;2023-07-30T00:53:11;8.73;;;3.70;;
44428;SDS011;30134;47.866;-4.222;2023-07-30T00:55:40;6.85;;;3.38;;
44428;SDS011;30134;47.866;-4.222;2023-07-30T00:58:06;8.18;;;3.17;;
44428;SDS011;30134;47.866;-4.222;2023-07-30T01:00:34;9.80;;;3.55;;
44428;SDS011;30134;47.866;-4.222;2023-07-30T01:03:01;8.60;;;3.28;;
44428;SDS011;30134;47.866;-4.222;2023-07-30T01:05:28;7.78;;;2.70;;
44428;SDS011;30134;47.866;-4.222;2023-07-30T01:07:54;7.75;;;3.08;;
44428;SDS011;30134;47.866;-4.222;2023-07-30T01:10:20;8.48;;;2.97;;
44428;SDS011;30134;47.866;-4.222;2023-07-30T01:12:47;7.82;;;3.20;;
44428;SDS011;30134;47.866;-4.222;2023-07-30T01:15:14;5.68;;;3.10;;
44428;SDS011;30134;47.866;-4.222;2023-07-30T01:17:40;9.18;;;2.92;;
44428;SDS011;30134;47.866;-4.222;2023-07-30T01:20:07;6.35;;;2.60;;
44428;SDS011;30134;47.866;-4.222;2023-07-30T01:22:40;5.72;;;2.55;;
44428;SDS011;30134;47.866;-4.222;2023-07-30T01:25:06;7.20;;;3.17;;
44428;SDS011;30134;47.866;-4.222;2023-07-30T01:27:33;7.28;;;3.10;;
44428;SDS011;30134;47.866;-4.222;2023-07-30T01:30:24;6.18;;;3.15;;
44428;SDS011;30134;47.866;-4.222;2023-07-30T01:32:54;8.00;;;3.17;;
44428;SDS011;30134;47.866;-4.222;2023-07-30T01:35:22;8.20;;;2.80;;
44428;SDS011;30134;47.866;-4.222;2023-07-30T01:37:52;6.27;;;2.87;;
44428;SDS011;30134;47.866;-4.222;2023-07-30T01:40:19;6.22;;;3.17;;
44428;SDS011;30134;47.866;-4.222;2023-07-30T01:42:46;7.20;;;2.90;;
44428;SDS011;30134;47.866;-4.222;2023-07-30T01:45:14;6.90;;;2.75;;
44428;SDS011;30134;47.866;-4.222;2023-07-30T01:47:40;8.52;;;2.92;;
44428;SDS011;30134;47.866;-4.222;2023-07-30T01:50:06;11.50;;;5.60;;
44428;SDS011;30134;47.866;-4.222;2023-07-30T01:52:32;12.25;;;7.55;;
44428;SDS011;30134;47.866;-4.222;2023-07-30T01:55:05;21.52;;;12.90;;
44428;SDS011;30134;47.866;-4.222;2023-07-30T01:57:32;27.15;;;17.58;;
44428;SDS011;30134;47.866;-4.222;2023-07-30T01:59:58;38.15;;;24.13;;
44428;SDS011;30134;47.866;-4.222;2023-07-30T02:02:24;37.35;;;25.75;;
44428;SDS011;30134;47.866;-4.222;2023-07-30T02:04:50;42.85;;;27.48;;
44428;SDS011;30134;47.866;-4.222;2023-07-30T02:07:16;44.38;;;29.33;;
44428;SDS011;30134;47.866;-4.222;2023-07-30T02:09:42;41.72;;;29.33;;
44428;SDS011;30134;47.866;-4.222;2023-07-30T02:12:09;43.65;;;30.00;;
44428;SDS011;30134;47.866;-4.222;2023-07-30T02:14:36;41.17;;;28.55;;
44428;SDS011;30134;47.866;-4.222;2023-07-30T02:17:02;41.75;;;28.77;;
44428;SDS011;30134;47.866;-4.222;2023-07-30T02:19:28;40.45;;;28.23;;
44428;SDS011;30134;47.866;-4.222;2023-07-30T02:21:54;37.85;;;26.55;;
44428;SDS011;30134;47.866;-4.222;2023-07-30T02:24:20;37.95;;;25.67;;
44428;SDS011;30134;47.866;-4.222;2023-07-30T02:26:48;34.20;;;24.45;;
44428;SDS011;30134;47.866;-4.222;2023-07-30T02:29:14;34.55;;;23.95;;
44428;SDS011;30134;47.866;-4.222;2023-07-30T02:31:41;32.75;;;22.30;;
44428;SDS011;30134;47.866;-4.222;2023-07-30T02:34:09;34.10;;;22.65;;
44428;SDS011;30134;47.866;-4.222;2023-07-30T02:36:35;28.55;;;19.25;;
44428;SDS011;30134;47.866;-4.222;2023-07-30T02:39:03;31.52;;;20.80;;
44428;SDS011;30134;47.866;-4.222;2023-07-30T02:41:29;41.88;;;26.65;;
44428;SDS011;30134;47.866;-4.222;2023-07-30T02:43:55;53.63;;;35.65;;
44428;SDS011;30134;47.866;-4.222;2023-07-30T02:46:35;68.80;;;45.47;;
44428;SDS011;30134;47.866;-4.222;2023-07-30T02:49:08;79.93;;;52.17;;
44428;SDS011;30134;47.866;-4.222;2023-07-30T02:51:34;76.60;;;50.30;;
44428;SDS011;30134;47.866;-4.222;2023-07-30T02:54:03;71.93;;;47.65;;
44428;SDS011;30134;47.866;-4.222;2023-07-30T02:56:30;66.40;;;43.72;;
44428;SDS011;30134;47.866;-4.222;2023-07-30T02:58:58;63.55;;;40.63;;
44428;SDS011;30134;47.866;-4.222;2023-07-30T03:01:24;59.78;;;38.83;;
44428;SDS011;30134;47.866;-4.222;2023-07-30T03:03:51;60.45;;;38.28;;
44428;SDS011;30134;47.866;-4.222;2023-07-30T03:06:16;54.65;;;35.85;;
44428;SDS011;30134;47.866;-4.222;2023-07-30T03:08:43;49.15;;;32.50;;
44428;SDS011;30134;47.866;-4.222;2023-07-30T03:11:09;49.63;;;31.13;;
44428;SDS011;30134;47.866;-4.222;2023-07-30T03:13:35;46.72;;;29.98;;
44428;SDS011;30134;47.866;-4.222;2023-07-30T03:16:01;43.55;;;27.60;;
44428;SDS011;30134;47.866;-4.222;2023-07-30T03:18:27;43.15;;;26.70;;
44428;SDS011;30134;47.866;-4.222;2023-07-30T03:21:02;38.70;;;25.10;;
44428;SDS011;30134;47.866;-4.222;2023-07-30T03:23:28;36.03;;;23.98;;
44428;SDS011;30134;47.866;-4.222;2023-07-30T03:25:54;41.38;;;23.92;;
44428;SDS011;30134;47.866;-4.222;2023-07-30T03:28:20;33.75;;;21.13;;
44428;SDS011;30134;47.866;-4.222;2023-07-30T03:30:46;37.00;;;19.88;;
44428;SDS011;30134;47.866;-4.222;2023-07-30T03:33:12;30.58;;;19.00;;
44428;SDS011;30134;47.866;-4.222;2023-07-30T03:35:38;31.02;;;18.67;;
44428;SDS011;30134;47.866;-4.222;2023-07-30T03:38:04;30.80;;;17.65;;
44428;SDS011;30134;47.866;-4.222;2023-07-30T03:40:30;26.45;;;16.30;;
44428;SDS011;30134;47.866;-4.222;2023-07-30T03:42:56;29.95;;;15.30;;
44428;SDS011;30134;47.866;-4.222;2023-07-30T03:45:22;25.33;;;14.73;;
44428;SDS011;30134;47.866;-4.222;2023-07-30T03:47:48;21.60;;;13.80;;
44428;SDS011;30134;47.866;-4.222;2023-07-30T03:50:14;25.95;;;14.63;;
44428;SDS011;30134;47.866;-4.222;2023-07-30T03:52:40;23.92;;;14.02;;
44428;SDS011;30134;47.866;-4.222;2023-07-30T03:55:08;25.48;;;12.82;;
44428;SDS011;30134;47.866;-4.222;2023-07-30T03:57:34;19.92;;;11.15;;
44428;SDS011;30134;47.866;-4.222;2023-07-30T04:00:00;19.10;;;11.18;;
44428;SDS011;30134;47.866;-4.222;2023-07-30T04:02:28;19.90;;;11.70;;
44428;SDS011;30134;47.866;-4.222;2023-07-30T04:04:54;19.33;;;10.48;;
44428;SDS011;30134;47.866;-4.222;2023-07-30T04:07:20;20.92;;;10.70;;
44428;SDS011;30134;47.866;-4.222;2023-07-30T04:09:46;20.73;;;10.50;;
44428;SDS011;30134;47.866;-4.222;2023-07-30T04:12:11;19.00;;;10.50;;
44428;SDS011;30134;47.866;-4.222;2023-07-30T04:14:37;19.60;;;10.52;;
44428;SDS011;30134;47.866;-4.222;2023-07-30T04:17:04;16.98;;;9.48;;
44428;SDS011;30134;47.866;-4.222;2023-07-30T04:19:29;18.65;;;9.65;;
44428;SDS011;30134;47.866;-4.222;2023-07-30T04:21:55;19.00;;;9.45;;
44428;SDS011;30134;47.866;-4.222;2023-07-30T04:24:21;15.00;;;8.05;;
44428;SDS011;30134;47.866;-4.222;2023-07-30T04:26:47;17.40;;;8.48;;
44428;SDS011;30134;47.866;-4.222;2023-07-30T04:29:13;18.80;;;8.60;;
44428;SDS011;30134;47.866;-4.222;2023-07-30T04:31:41;13.25;;;7.80;;
44428;SDS011;30134;47.866;-4.222;2023-07-30T04:34:08;12.93;;;7.55;;
44428;SDS011;30134;47.866;-4.222;2023-07-30T04:36:34;13.60;;;7.65;;
44428;SDS011;30134;47.866;-4.222;2023-07-30T04:39:00;15.75;;;7.70;;
44428;SDS011;30134;47.866;-4.222;2023-07-30T04:41:25;12.90;;;7.22;;
44428;SDS011;30134;47.866;-4.222;2023-07-30T04:43:51;13.73;;;7.15;;
44428;SDS011;30134;47.866;-4.222;2023-07-30T04:46:17;14.93;;;7.82;;
44428;SDS011;30134;47.866;-4.222;2023-07-30T04:48:43;13.23;;;6.30;;
44428;SDS011;30134;47.866;-4.222;2023-07-30T04:51:09;16.10;;;6.90;;
44428;SDS011;30134;47.866;-4.222;2023-07-30T04:53:35;11.68;;;5.80;;
44428;SDS011;30134;47.866;-4.222;2023-07-30T04:56:01;15.45;;;6.78;;
44428;SDS011;30134;47.866;-4.222;2023-07-30T04:58:27;14.35;;;6.47;;
44428;SDS011;30134;47.866;-4.222;2023-07-30T05:00:53;11.48;;;6.32;;
44428;SDS011;30134;47.866;-4.222;2023-07-30T05:03:19;11.88;;;5.63;;
44428;SDS011;30134;47.866;-4.222;2023-07-30T05:05:45;13.90;;;6.55;;
44428;SDS011;30134;47.866;-4.222;2023-07-30T05:08:11;11.30;;;5.70;;
44428;SDS011;30134;47.866;-4.222;2023-07-30T05:10:37;11.40;;;5.78;;
44428;SDS011;30134;47.866;-4.222;2023-07-30T05:13:03;12.73;;;6.22;;
44428;SDS011;30134;47.866;-4.222;2023-07-30T05:15:29;11.13;;;5.82;;
44428;SDS011;30134;47.866;-4.222;2023-07-30T05:17:55;12.80;;;6.30;;
44428;SDS011;30134;47.866;-4.222;2023-07-30T05:20:21;10.63;;;5.85;;
44428;SDS011;30134;47.866;-4.222;2023-07-30T05:22:47;13.85;;;5.15;;
44428;SDS011;30134;47.866;-4.222;2023-07-30T05:25:13;11.27;;;6.25;;
44428;SDS011;30134;47.866;-4.222;2023-07-30T05:27:39;11.48;;;5.68;;
44428;SDS011;30134;47.866;-4.222;2023-07-30T05:30:08;12.07;;;5.40;;
44428;SDS011;30134;47.866;-4.222;2023-07-30T05:32:34;13.18;;;5.85;;
44428;SDS011;30134;47.866;-4.222;2023-07-30T05:35:00;13.68;;;5.57;;
44428;SDS011;30134;47.866;-4.222;2023-07-30T05:37:27;12.93;;;5.90;;
44428;SDS011;30134;47.866;-4.222;2023-07-30T05:39:53;12.55;;;6.10;;
44428;SDS011;30134;47.866;-4.222;2023-07-30T05:42:18;12.63;;;5.70;;
44428;SDS011;30134;47.866;-4.222;2023-07-30T05:44:44;12.00;;;5.63;;
44428;SDS011;30134;47.866;-4.222;2023-07-30T05:47:10;14.88;;;5.18;;
44428;SDS011;30134;47.866;-4.222;2023-07-30T05:49:36;10.98;;;5.75;;
44428;SDS011;30134;47.866;-4.222;2023-07-30T05:52:02;11.35;;;5.53;;
44428;SDS011;30134;47.866;-4.222;2023-07-30T05:54:29;14.85;;;5.53;;
44428;SDS011;30134;47.866;-4.222;2023-07-30T05:56:55;12.88;;;5.45;;
44428;SDS011;30134;47.866;-4.222;2023-07-30T05:59:21;12.25;;;5.18;;
44428;SDS011;30134;47.866;-4.222;2023-07-30T06:01:47;10.48;;;4.60;;
44428;SDS011;30134;47.866;-4.222;2023-07-30T06:04:12;13.38;;;5.40;;
44428;SDS011;30134;47.866;-4.222;2023-07-30T06:06:38;10.68;;;5.03;;
44428;SDS011;30134;47.866;-4.222;2023-07-30T06:09:05;12.25;;;5.07;;
44428;SDS011;30134;47.866;-4.222;2023-07-30T06:11:31;10.25;;;4.75;;
44428;SDS011;30134;47.866;-4.222;2023-07-30T06:13:56;11.38;;;5.57;;
44428;SDS011;30134;47.866;-4.222;2023-07-30T06:16:22;10.40;;;4.78;;
44428;SDS011;30134;47.866;-4.222;2023-07-30T06:18:48;12.82;;;5.22;;
44428;SDS011;30134;47.866;-4.222;2023-07-30T06:21:17;11.32;;;5.00;;
44428;SDS011;30134;47.866;-4.222;2023-07-30T06:23:42;9.55;;;4.30;;
44428;SDS011;30134;47.866;-4.222;2023-07-30T06:26:08;10.43;;;4.65;;
44428;SDS011;30134;47.866;-4.222;2023-07-30T06:28:34;11.02;;;4.90;;
44428;SDS011;30134;47.866;-4.222;2023-07-30T06:31:01;11.20;;;5.20;;
44428;SDS011;30134;47.866;-4.222;2023-07-30T06:33:27;8.40;;;4.53;;
44428;SDS011;30134;47.866;-4.222;2023-07-30T06:35:53;11.60;;;4.88;;
44428;SDS011;30134;47.866;-4.222;2023-07-30T06:38:19;12.48;;;4.95;;
44428;SDS011;30134;47.866;-4.222;2023-07-30T06:40:46;13.27;;;5.03;;
44428;SDS011;30134;47.866;-4.222;2023-07-30T06:43:12;8.93;;;4.40;;
44428;SDS011;30134;47.866;-4.222;2023-07-30T06:45:38;11.23;;;4.95;;
44428;SDS011;30134;47.866;-4.222;2023-07-30T06:48:04;10.27;;;4.82;;
44428;SDS011;30134;47.866;-4.222;2023-07-30T06:50:30;10.45;;;4.70;;
44428;SDS011;30134;47.866;-4.222;2023-07-30T06:52:56;11.60;;;4.85;;
44428;SDS011;30134;47.866;-4.222;2023-07-30T06:55:22;12.18;;;4.70;;
44428;SDS011;30134;47.866;-4.222;2023-07-30T06:57:48;11.10;;;4.75;;
44428;SDS011;30134;47.866;-4.222;2023-07-30T07:00:14;9.27;;;4.53;;
44428;SDS011;30134;47.866;-4.222;2023-07-30T07:05:13;9.02;;;4.90;;
44428;SDS011;30134;47.866;-4.222;2023-07-30T07:07:40;10.38;;;4.45;;
44428;SDS011;30134;47.866;-4.222;2023-07-30T07:10:06;10.77;;;4.72;;
44428;SDS011;30134;47.866;-4.222;2023-07-30T07:12:32;12.90;;;5.10;;
44428;SDS011;30134;47.866;-4.222;2023-07-30T07:14:58;12.75;;;5.03;;
44428;SDS011;30134;47.866;-4.222;2023-07-30T07:17:26;9.95;;;4.55;;
44428;SDS011;30134;47.866;-4.222;2023-07-30T07:19:55;11.52;;;4.20;;
44428;SDS011;30134;47.866;-4.222;2023-07-30T07:22:22;10.48;;;4.55;;
44428;SDS011;30134;47.866;-4.222;2023-07-30T07:24:48;12.10;;;5.75;;
44428;SDS011;30134;47.866;-4.222;2023-07-30T07:27:17;11.40;;;4.97;;
44428;SDS011;30134;47.866;-4.222;2023-07-30T07:29:43;12.02;;;4.90;;
44428;SDS011;30134;47.866;-4.222;2023-07-30T07:32:10;11.15;;;4.78;;
44428;SDS011;30134;47.866;-4.222;2023-07-30T07:34:37;11.35;;;4.85;;
44428;SDS011;30134;47.866;-4.222;2023-07-30T07:37:03;11.45;;;4.28;;
44428;SDS011;30134;47.866;-4.222;2023-07-30T07:39:29;10.20;;;4.80;;
44428;SDS011;30134;47.866;-4.222;2023-07-30T07:41:55;8.73;;;4.45;;
44428;SDS011;30134;47.866;-4.222;2023-07-30T07:44:28;10.95;;;4.88;;
44428;SDS011;30134;47.866;-4.222;2023-07-30T07:46:54;11.50;;;4.80;;
44428;SDS011;30134;47.866;-4.222;2023-07-30T07:49:20;10.60;;;5.15;;
44428;SDS011;30134;47.866;-4.222;2023-07-30T07:51:46;10.23;;;4.60;;
44428;SDS011;30134;47.866;-4.222;2023-07-30T07:54:12;12.68;;;4.70;;
44428;SDS011;30134;47.866;-4.222;2023-07-30T07:56:37;11.95;;;5.30;;
44428;SDS011;30134;47.866;-4.222;2023-07-30T07:59:03;12.40;;;5.38;;
44428;SDS011;30134;47.866;-4.222;2023-07-30T08:01:29;12.20;;;4.95;;
44428;SDS011;30134;47.866;-4.222;2023-07-30T08:03:55;11.57;;;5.00;;
44428;SDS011;30134;47.866;-4.222;2023-07-30T08:06:21;8.18;;;4.78;;
44428;SDS011;30134;47.866;-4.222;2023-07-30T08:08:50;10.30;;;5.03;;
44428;SDS011;30134;47.866;-4.222;2023-07-30T08:11:16;10.63;;;4.93;;
44428;SDS011;30134;47.866;-4.222;2023-07-30T08:13:42;14.07;;;5.38;;
44428;SDS011;30134;47.866;-4.222;2023-07-30T08:16:08;10.52;;;4.80;;
44428;SDS011;30134;47.866;-4.222;2023-07-30T08:18:34;11.50;;;5.28;;
44428;SDS011;30134;47.866;-4.222;2023-07-30T08:21:03;10.75;;;4.88;;
44428;SDS011;30134;47.866;-4.222;2023-07-30T08:23:29;14.25;;;4.80;;
44428;SDS011;30134;47.866;-4.222;2023-07-30T08:25:55;10.73;;;4.93;;
44428;SDS011;30134;47.866;-4.222;2023-07-30T08:28:21;12.30;;;4.70;;
44428;SDS011;30134;47.866;-4.222;2023-07-30T08:30:47;11.50;;;4.53;;
44428;SDS011;30134;47.866;-4.222;2023-07-30T08:33:13;10.35;;;4.50;;
44428;SDS011;30134;47.866;-4.222;2023-07-30T08:35:39;9.70;;;4.75;;
44428;SDS011;30134;47.866;-4.222;2023-07-30T08:38:05;10.82;;;5.00;;
44428;SDS011;30134;47.866;-4.222;2023-07-30T08:40:31;12.27;;;4.75;;
44428;SDS011;30134;47.866;-4.222;2023-07-30T08:42:58;11.50;;;4.95;;
44428;SDS011;30134;47.866;-4.222;2023-07-30T08:45:26;15.48;;;5.55;;
44428;SDS011;30134;47.866;-4.222;2023-07-30T08:47:52;13.25;;;5.13;;
44428;SDS011;30134;47.866;-4.222;2023-07-30T08:50:18;12.80;;;4.95;;
44428;SDS011;30134;47.866;-4.222;2023-07-30T08:52:45;10.18;;;5.22;;
44428;SDS011;30134;47.866;-4.222;2023-07-30T08:55:13;11.20;;;5.32;;
44428;SDS011;30134;47.866;-4.222;2023-07-30T08:57:40;14.80;;;5.38;;
44428;SDS011;30134;47.866;-4.222;2023-07-30T09:00:09;17.08;;;5.80;;
44428;SDS011;30134;47.866;-4.222;2023-07-30T09:05:20;18.17;;;5.93;;
44428;SDS011;30134;47.866;-4.222;2023-07-30T09:07:47;16.63;;;5.75;;
44428;SDS011;30134;47.866;-4.222;2023-07-30T09:10:14;14.18;;;6.03;;
44428;SDS011;30134;47.866;-4.222;2023-07-30T09:12:40;14.30;;;5.82;;
44428;SDS011;30134;47.866;-4.222;2023-07-30T09:15:07;14.18;;;5.50;;
44428;SDS011;30134;47.866;-4.222;2023-07-30T09:17:34;15.68;;;5.95;;
44428;SDS011;30134;47.866;-4.222;2023-07-30T09:20:01;16.30;;;5.60;;
44428;SDS011;30134;47.866;-4.222;2023-07-30T09:22:30;12.85;;;5.80;;
44428;SDS011;30134;47.866;-4.222;2023-07-30T09:25:00;13.20;;;5.70;;
44428;SDS011;30134;47.866;-4.222;2023-07-30T09:27:28;15.27;;;5.70;;
44428;SDS011;30134;47.866;-4.222;2023-07-30T09:29:57;14.32;;;5.68;;
44428;SDS011;30134;47.866;-4.222;2023-07-30T09:32:28;12.63;;;6.22;;
44428;SDS011;30134;47.866;-4.222;2023-07-30T09:35:06;15.10;;;6.40;;
44428;SDS011;30134;47.866;-4.222;2023-07-30T09:37:38;12.07;;;5.20;;
44428;SDS011;30134;47.866;-4.222;2023-07-30T09:42:34;15.00;;;5.55;;
44428;SDS011;30134;47.866;-4.222;2023-07-30T09:45:04;13.18;;;6.13;;
44428;SDS011;30134;47.866;-4.222;2023-07-30T09:47:45;15.65;;;5.55;;
44428;SDS011;30134;47.866;-4.222;2023-07-30T09:50:13;16.25;;;6.35;;
44428;SDS011;30134;47.866;-4.222;2023-07-30T09:52:40;14.90;;;6.40;;
44428;SDS011;30134;47.866;-4.222;2023-07-30T09:55:08;16.55;;;6.40;;
44428;SDS011;30134;47.866;-4.222;2023-07-30T09:57:36;14.00;;;5.80;;
44428;SDS011;30134;47.866;-4.222;2023-07-30T10:00:04;15.32;;;6.18;;
44428;SDS011;30134;47.866;-4.222;2023-07-30T10:02:37;16.05;;;5.80;;
44428;SDS011;30134;47.866;-4.222;2023-07-30T10:07:37;21.97;;;7.00;;
44428;SDS011;30134;47.866;-4.222;2023-07-30T10:10:09;26.92;;;7.93;;
44428;SDS011;30134;47.866;-4.222;2023-07-30T10:12:36;27.20;;;8.25;;
44428;SDS011;30134;47.866;-4.222;2023-07-30T10:15:06;25.58;;;8.32;;
44428;SDS011;30134;47.866;-4.222;2023-07-30T10:17:33;27.70;;;8.35;;
44428;SDS011;30134;47.866;-4.222;2023-07-30T10:20:17;29.92;;;10.50;;
44428;SDS011;30134;47.866;-4.222;2023-07-30T10:22:47;27.23;;;8.55;;
44428;SDS011;30134;47.866;-4.222;2023-07-30T10:25:21;28.98;;;8.77;;
44428;SDS011;30134;47.866;-4.222;2023-07-30T10:27:53;27.95;;;7.75;;
44428;SDS011;30134;47.866;-4.222;2023-07-30T10:30:20;20.17;;;8.10;;
44428;SDS011;30134;47.866;-4.222;2023-07-30T10:38:18;27.60;;;8.77;;
44428;SDS011;30134;47.866;-4.222;2023-07-30T10:40:59;24.70;;;8.02;;
44428;SDS011;30134;47.866;-4.222;2023-07-30T10:43:42;31.27;;;7.80;;
44428;SDS011;30134;47.866;-4.222;2023-07-30T10:46:20;23.15;;;7.10;;
44428;SDS011;30134;47.866;-4.222;2023-07-30T10:48:46;27.95;;;8.55;;
44428;SDS011;30134;47.866;-4.222;2023-07-30T10:51:14;23.75;;;7.55;;
44428;SDS011;30134;47.866;-4.222;2023-07-30T10:53:48;26.02;;;7.85;;
44428;SDS011;30134;47.866;-4.222;2023-07-30T10:56:21;22.58;;;7.68;;
44428;SDS011;30134;47.866;-4.222;2023-07-30T10:58:52;25.05;;;8.27;;
44428;SDS011;30134;47.866;-4.222;2023-07-30T11:01:20;25.10;;;7.47;;
44428;SDS011;30134;47.866;-4.222;2023-07-30T11:03:51;26.83;;;8.48;;
44428;SDS011;30134;47.866;-4.222;2023-07-30T11:06:24;23.67;;;7.45;;
44428;SDS011;30134;47.866;-4.222;2023-07-30T11:08:51;24.80;;;8.65;;
44428;SDS011;30134;47.866;-4.222;2023-07-30T11:11:18;31.50;;;8.65;;
44428;SDS011;30134;47.866;-4.222;2023-07-30T11:13:44;27.88;;;8.50;;
44428;SDS011;30134;47.866;-4.222;2023-07-30T11:16:12;28.77;;;8.80;;
44428;SDS011;30134;47.866;-4.222;2023-07-30T11:18:39;26.80;;;9.15;;
44428;SDS011;30134;47.866;-4.222;2023-07-30T11:21:11;34.58;;;11.93;;
44428;SDS011;30134;47.866;-4.222;2023-07-30T11:23:40;27.60;;;11.20;;
44428;SDS011;30134;47.866;-4.222;2023-07-30T11:26:08;31.50;;;9.48;;
44428;SDS011;30134;47.866;-4.222;2023-07-30T11:28:40;28.90;;;8.38;;
44428;SDS011;30134;47.866;-4.222;2023-07-30T11:33:45;24.80;;;8.55;;
44428;SDS011;30134;47.866;-4.222;2023-07-30T11:36:16;21.90;;;7.07;;
44428;SDS011;30134;47.866;-4.222;2023-07-30T11:38:46;29.08;;;7.95;;
44428;SDS011;30134;47.866;-4.222;2023-07-30T11:41:13;21.65;;;7.53;;
44428;SDS011;30134;47.866;-4.222;2023-07-30T11:43:41;24.88;;;7.45;;
44428;SDS011;30134;47.866;-4.222;2023-07-30T11:46:13;23.73;;;7.50;;
44428;SDS011;30134;47.866;-4.222;2023-07-30T11:48:46;27.63;;;7.90;;
44428;SDS011;30134;47.866;-4.222;2023-07-30T11:51:27;21.20;;;7.13;;
44428;SDS011;30134;47.866;-4.222;2023-07-30T11:53:55;20.02;;;7.38;;
44428;SDS011;30134;47.866;-4.222;2023-07-30T11:56:24;25.80;;;8.10;;
44428;SDS011;30134;47.866;-4.222;2023-07-30T11:58:58;23.15;;;7.60;;
44428;SDS011;30134;47.866;-4.222;2023-07-30T12:01:27;19.45;;;6.90;;
44428;SDS011;30134;47.866;-4.222;2023-07-30T12:03:56;24.08;;;6.95;;
44428;SDS011;30134;47.866;-4.222;2023-07-30T12:06:24;21.40;;;7.32;;
44428;SDS011;30134;47.866;-4.222;2023-07-30T12:09:23;19.20;;;6.25;;
44428;SDS011;30134;47.866;-4.222;2023-07-30T12:11:56;18.88;;;6.43;;
44428;SDS011;30134;47.866;-4.222;2023-07-30T12:17:14;25.00;;;7.15;;
44428;SDS011;30134;47.866;-4.222;2023-07-30T12:19:43;24.10;;;7.18;;
44428;SDS011;30134;47.866;-4.222;2023-07-30T12:22:09;24.42;;;7.00;;
44428;SDS011;30134;47.866;-4.222;2023-07-30T12:24:35;19.63;;;6.93;;
44428;SDS011;30134;47.866;-4.222;2023-07-30T12:27:01;22.83;;;7.22;;
44428;SDS011;30134;47.866;-4.222;2023-07-30T12:29:28;18.52;;;6.35;;
44428;SDS011;30134;47.866;-4.222;2023-07-30T12:31:54;17.00;;;6.70;;
44428;SDS011;30134;47.866;-4.222;2023-07-30T12:34:21;23.73;;;6.88;;
44428;SDS011;30134;47.866;-4.222;2023-07-30T12:36:48;18.90;;;6.25;;
44428;SDS011;30134;47.866;-4.222;2023-07-30T12:39:14;28.92;;;7.53;;
44428;SDS011;30134;47.866;-4.222;2023-07-30T12:41:40;20.48;;;6.72;;
44428;SDS011;30134;47.866;-4.222;2023-07-30T12:44:06;25.60;;;6.82;;
44428;SDS011;30134;47.866;-4.222;2023-07-30T12:46:34;19.63;;;5.95;;
44428;SDS011;30134;47.866;-4.222;2023-07-30T12:49:00;18.08;;;6.70;;
44428;SDS011;30134;47.866;-4.222;2023-07-30T12:51:29;24.33;;;7.20;;
44428;SDS011;30134;47.866;-4.222;2023-07-30T12:53:56;21.73;;;7.18;;
44428;SDS011;30134;47.866;-4.222;2023-07-30T12:56:22;14.75;;;5.68;;
44428;SDS011;30134;47.866;-4.222;2023-07-30T12:58:48;21.55;;;6.32;;
44428;SDS011;30134;47.866;-4.222;2023-07-30T13:01:14;19.33;;;6.50;;
44428;SDS011;30134;47.866;-4.222;2023-07-30T13:03:40;20.40;;;6.38;;
44428;SDS011;30134;47.866;-4.222;2023-07-30T13:06:10;20.00;;;6.63;;
44428;SDS011;30134;47.866;-4.222;2023-07-30T13:08:38;19.75;;;6.32;;
44428;SDS011;30134;47.866;-4.222;2023-07-30T13:11:05;30.25;;;7.07;;
44428;SDS011;30134;47.866;-4.222;2023-07-30T13:13:31;17.25;;;6.68;;
44428;SDS011;30134;47.866;-4.222;2023-07-30T13:15:58;19.95;;;6.65;;
44428;SDS011;30134;47.866;-4.222;2023-07-30T13:18:26;18.67;;;7.18;;
44428;SDS011;30134;47.866;-4.222;2023-07-30T13:20:55;20.35;;;6.95;;
44428;SDS011;30134;47.866;-4.222;2023-07-30T13:23:20;17.77;;;5.93;;
44428;SDS011;30134;47.866;-4.222;2023-07-30T13:25:47;16.73;;;5.72;;
44428;SDS011;30134;47.866;-4.222;2023-07-30T13:28:13;18.67;;;6.15;;
44428;SDS011;30134;47.866;-4.222;2023-07-30T13:30:39;18.48;;;6.28;;
44428;SDS011;30134;47.866;-4.222;2023-07-30T13:33:05;14.45;;;6.05;;
44428;SDS011;30134;47.866;-4.222;2023-07-30T13:35:31;19.65;;;6.55;;
44428;SDS011;30134;47.866;-4.222;2023-07-30T13:37:57;16.23;;;5.97;;
44428;SDS011;30134;47.866;-4.222;2023-07-30T13:40:23;18.30;;;6.63;;
44428;SDS011;30134;47.866;-4.222;2023-07-30T13:42:49;14.32;;;5.95;;
44428;SDS011;30134;47.866;-4.222;2023-07-30T13:45:15;20.70;;;7.03;;
44428;SDS011;30134;47.866;-4.222;2023-07-30T13:47:41;18.02;;;6.20;;
44428;SDS011;30134;47.866;-4.222;2023-07-30T13:50:07;16.52;;;6.05;;
44428;SDS011;30134;47.866;-4.222;2023-07-30T13:52:33;18.20;;;6.05;;
44428;SDS011;30134;47.866;-4.222;2023-07-30T13:54:59;20.58;;;6.28;;
44428;SDS011;30134;47.866;-4.222;2023-07-30T13:57:25;19.17;;;5.38;;
44428;SDS011;30134;47.866;-4.222;2023-07-30T13:59:52;19.33;;;6.65;;
44428;SDS011;30134;47.866;-4.222;2023-07-30T14:02:18;20.05;;;6.50;;
44428;SDS011;30134;47.866;-4.222;2023-07-30T14:04:44;20.52;;;6.35;;
44428;SDS011;30134;47.866;-4.222;2023-07-30T14:07:10;21.48;;;6.90;;
44428;SDS011;30134;47.866;-4.222;2023-07-30T14:09:37;20.30;;;6.88;;
44428;SDS011;30134;47.866;-4.222;2023-07-30T14:12:03;17.20;;;6.15;;
44428;SDS011;30134;47.866;-4.222;2023-07-30T14:14:30;18.35;;;6.18;;
44428;SDS011;30134;47.866;-4.222;2023-07-30T14:16:56;20.08;;;6.53;;
44428;SDS011;30134;47.866;-4.222;2023-07-30T14:19:22;18.08;;;6.65;;
44428;SDS011;30134;47.866;-4.222;2023-07-30T14:21:48;20.15;;;6.78;;
44428;SDS011;30134;47.866;-4.222;2023-07-30T14:24:14;18.85;;;5.97;;
44428;SDS011;30134;47.866;-4.222;2023-07-30T14:26:40;17.63;;;6.70;;
44428;SDS011;30134;47.866;-4.222;2023-07-30T14:29:06;23.70;;;6.65;;
44428;SDS011;30134;47.866;-4.222;2023-07-30T14:31:32;19.80;;;6.28;;
44428;SDS011;30134;47.866;-4.222;2023-07-30T14:33:58;16.40;;;6.35;;
44428;SDS011;30134;47.866;-4.222;2023-07-30T14:36:24;17.02;;;6.53;;
44428;SDS011;30134;47.866;-4.222;2023-07-30T14:38:50;16.02;;;6.40;;
44428;SDS011;30134;47.866;-4.222;2023-07-30T14:41:16;17.88;;;6.78;;
44428;SDS011;30134;47.866;-4.222;2023-07-30T14:43:42;13.57;;;6.80;;